sensor_id;sensor_type;location;lat;lon;timestamp;P1;durP1;ratioP1;P2;durP2;ratioP2
54412;SDS011;41533;51.390;0.074;2023-04-24T00:01:37;10.88;;;7.28;;
54412;SDS011;41533;51.390;0.074;2023-04-24T00:04:06;12.35;;;8.07;;
54412;SDS011;41533;51.390;0.074;2023-04-24T00:06:34;7.22;;;3.67;;
54412;SDS011;41533;51.390;0.074;2023-04-24T00:09:01;15.27;;;8.23;;
54412;SDS011;41533;51.390;0.074;2023-04-24T00:11:29;12.23;;;7.03;;
54412;SDS011;41533;51.390;0.074;2023-04-24T00:13:57;12.90;;;7.70;;
54412;SDS011;41533;51.390;0.074;2023-04-24T00:16:24;8.18;;;4.28;;
54412;SDS011;41533;51.390;0.074;2023-04-24T00:18:51;10.32;;;5.40;;
54412;SDS011;41533;51.390;0.074;2023-04-24T00:21:23;7.40;;;4.47;;
54412;SDS011;41533;51.390;0.074;2023-04-24T00:23:52;8.85;;;4.78;;
54412;SDS011;41533;51.390;0.074;2023-04-24T00:26:20;14.27;;;8.05;;
54412;SDS011;41533;51.390;0.074;2023-04-24T00:28:47;13.25;;;8.40;;
54412;SDS011;41533;51.390;0.074;2023-04-24T00:31:14;6.15;;;4.20;;
54412;SDS011;41533;51.390;0.074;2023-04-24T00:33:42;5.85;;;4.22;;
54412;SDS011;41533;51.390;0.074;2023-04-24T00:36:09;7.30;;;5.07;;
54412;SDS011;41533;51.390;0.074;2023-04-24T00:38:37;7.28;;;4.53;;
54412;SDS011;41533;51.390;0.074;2023-04-24T00:41:04;6.90;;;4.55;;
54412;SDS011;41533;51.390;0.074;2023-04-24T00:43:31;4.60;;;3.35;;
54412;SDS011;41533;51.390;0.074;2023-04-24T00:45:59;10.65;;;6.22;;
54412;SDS011;41533;51.390;0.074;2023-04-24T00:48:28;10.38;;;6.38;;
54412;SDS011;41533;51.390;0.074;2023-04-24T00:50:56;10.65;;;5.72;;
54412;SDS011;41533;51.390;0.074;2023-04-24T00:53:25;13.80;;;7.63;;
54412;SDS011;41533;51.390;0.074;2023-04-24T00:55:53;14.88;;;6.63;;
54412;SDS011;41533;51.390;0.074;2023-04-24T00:58:20;8.18;;;4.95;;
54412;SDS011;41533;51.390;0.074;2023-04-24T01:00:48;9.07;;;5.75;;
54412;SDS011;41533;51.390;0.074;2023-04-24T01:03:16;9.75;;;5.88;;
54412;SDS011;41533;51.390;0.074;2023-04-24T01:05:43;10.80;;;6.60;;
54412;SDS011;41533;51.390;0.074;2023-04-24T01:08:11;11.68;;;5.10;;
54412;SDS011;41533;51.390;0.074;2023-04-24T01:10:38;9.88;;;4.93;;
54412;SDS011;41533;51.390;0.074;2023-04-24T01:13:08;7.53;;;5.00;;
54412;SDS011;41533;51.390;0.074;2023-04-24T01:15:35;11.35;;;5.80;;
54412;SDS011;41533;51.390;0.074;2023-04-24T01:18:02;6.43;;;4.15;;
54412;SDS011;41533;51.390;0.074;2023-04-24T01:20:30;4.70;;;3.72;;
54412;SDS011;41533;51.390;0.074;2023-04-24T01:22:58;11.70;;;5.78;;
54412;SDS011;41533;51.390;0.074;2023-04-24T01:25:26;14.38;;;7.30;;
54412;SDS011;41533;51.390;0.074;2023-04-24T01:27:56;9.98;;;6.47;;
54412;SDS011;41533;51.390;0.074;2023-04-24T01:30:24;4.63;;;2.90;;
54412;SDS011;41533;51.390;0.074;2023-04-24T01:32:52;7.10;;;5.13;;
54412;SDS011;41533;51.390;0.074;2023-04-24T01:35:19;9.27;;;4.60;;
54412;SDS011;41533;51.390;0.074;2023-04-24T01:37:47;9.40;;;5.03;;
54412;SDS011;41533;51.390;0.074;2023-04-24T01:40:14;4.95;;;3.70;;
54412;SDS011;41533;51.390;0.074;2023-04-24T01:42:41;10.55;;;6.72;;
54412;SDS011;41533;51.390;0.074;2023-04-24T01:45:10;7.40;;;5.05;;
54412;SDS011;41533;51.390;0.074;2023-04-24T01:47:37;11.43;;;6.65;;
54412;SDS011;41533;51.390;0.074;2023-04-24T01:50:05;5.60;;;3.20;;
54412;SDS011;41533;51.390;0.074;2023-04-24T01:52:32;4.10;;;2.80;;
54412;SDS011;41533;51.390;0.074;2023-04-24T01:55:00;6.60;;;4.00;;
54412;SDS011;41533;51.390;0.074;2023-04-24T01:57:27;5.03;;;3.22;;
54412;SDS011;41533;51.390;0.074;2023-04-24T01:59:57;4.53;;;3.58;;
54412;SDS011;41533;51.390;0.074;2023-04-24T02:02:24;6.55;;;3.47;;
54412;SDS011;41533;51.390;0.074;2023-04-24T02:04:56;10.05;;;6.47;;
54412;SDS011;41533;51.390;0.074;2023-04-24T02:07:24;15.00;;;7.72;;
54412;SDS011;41533;51.390;0.074;2023-04-24T02:09:51;10.65;;;6.75;;
54412;SDS011;41533;51.390;0.074;2023-04-24T02:12:18;10.00;;;4.60;;
54412;SDS011;41533;51.390;0.074;2023-04-24T02:14:45;10.02;;;5.32;;
54412;SDS011;41533;51.390;0.074;2023-04-24T02:17:13;8.60;;;6.05;;
54412;SDS011;41533;51.390;0.074;2023-04-24T02:19:42;8.70;;;5.15;;
54412;SDS011;41533;51.390;0.074;2023-04-24T02:22:10;10.32;;;5.75;;
54412;SDS011;41533;51.390;0.074;2023-04-24T02:24:37;12.55;;;7.63;;
54412;SDS011;41533;51.390;0.074;2023-04-24T02:27:06;3.30;;;2.83;;
54412;SDS011;41533;51.390;0.074;2023-04-24T02:29:33;5.47;;;4.03;;
54412;SDS011;41533;51.390;0.074;2023-04-24T02:32:01;7.78;;;3.58;;
54412;SDS011;41533;51.390;0.074;2023-04-24T02:34:28;5.28;;;4.10;;
54412;SDS011;41533;51.390;0.074;2023-04-24T02:36:55;4.72;;;3.53;;
54412;SDS011;41533;51.390;0.074;2023-04-24T02:39:22;5.28;;;3.80;;
54412;SDS011;41533;51.390;0.074;2023-04-24T02:41:52;9.98;;;5.57;;
54412;SDS011;41533;51.390;0.074;2023-04-24T02:44:19;5.43;;;4.00;;
54412;SDS011;41533;51.390;0.074;2023-04-24T02:46:46;5.10;;;3.17;;
54412;SDS011;41533;51.390;0.074;2023-04-24T02:49:14;5.93;;;4.25;;
54412;SDS011;41533;51.390;0.074;2023-04-24T02:51:41;10.85;;;6.72;;
54412;SDS011;41533;51.390;0.074;2023-04-24T02:54:09;11.90;;;7.80;;
54412;SDS011;41533;51.390;0.074;2023-04-24T02:56:37;5.90;;;4.32;;
54412;SDS011;41533;51.390;0.074;2023-04-24T02:59:06;6.38;;;4.32;;
54412;SDS011;41533;51.390;0.074;2023-04-24T03:01:33;12.02;;;6.40;;
54412;SDS011;41533;51.390;0.074;2023-04-24T03:04:01;8.27;;;4.95;;
54412;SDS011;41533;51.390;0.074;2023-04-24T03:06:28;8.18;;;5.82;;
54412;SDS011;41533;51.390;0.074;2023-04-24T03:08:58;8.75;;;6.00;;
54412;SDS011;41533;51.390;0.074;2023-04-24T03:11:25;8.88;;;5.97;;
54412;SDS011;41533;51.390;0.074;2023-04-24T03:13:52;10.73;;;6.35;;
54412;SDS011;41533;51.390;0.074;2023-04-24T03:16:20;9.43;;;5.10;;
54412;SDS011;41533;51.390;0.074;2023-04-24T03:18:47;9.18;;;5.30;;
54412;SDS011;41533;51.390;0.074;2023-04-24T03:21:15;7.47;;;3.72;;
54412;SDS011;41533;51.390;0.074;2023-04-24T03:23:43;10.63;;;6.00;;
54412;SDS011;41533;51.390;0.074;2023-04-24T03:26:10;9.52;;;4.95;;
54412;SDS011;41533;51.390;0.074;2023-04-24T03:28:45;5.28;;;3.50;;
54412;SDS011;41533;51.390;0.074;2023-04-24T03:31:12;9.00;;;5.65;;
54412;SDS011;41533;51.390;0.074;2023-04-24T03:33:39;8.82;;;4.80;;
54412;SDS011;41533;51.390;0.074;2023-04-24T03:36:07;9.38;;;4.80;;
54412;SDS011;41533;51.390;0.074;2023-04-24T03:38:40;9.40;;;6.13;;
54412;SDS011;41533;51.390;0.074;2023-04-24T03:41:26;8.25;;;5.55;;
54412;SDS011;41533;51.390;0.074;2023-04-24T03:44:15;8.75;;;5.50;;
54412;SDS011;41533;51.390;0.074;2023-04-24T03:46:43;6.28;;;4.38;;
54412;SDS011;41533;51.390;0.074;2023-04-24T03:49:10;9.25;;;4.30;;
54412;SDS011;41533;51.390;0.074;2023-04-24T03:51:42;8.52;;;5.40;;
54412;SDS011;41533;51.390;0.074;2023-04-24T03:54:22;8.52;;;4.68;;
54412;SDS011;41533;51.390;0.074;2023-04-24T03:56:51;9.38;;;4.97;;
54412;SDS011;41533;51.390;0.074;2023-04-24T03:59:19;7.40;;;5.13;;
54412;SDS011;41533;51.390;0.074;2023-04-24T04:01:57;12.40;;;6.72;;
54412;SDS011;41533;51.390;0.074;2023-04-24T04:04:24;8.73;;;6.00;;
54412;SDS011;41533;51.390;0.074;2023-04-24T04:06:52;10.25;;;6.13;;
54412;SDS011;41533;51.390;0.074;2023-04-24T04:09:20;10.35;;;6.18;;
54412;SDS011;41533;51.390;0.074;2023-04-24T04:11:48;8.52;;;5.75;;
54412;SDS011;41533;51.390;0.074;2023-04-24T04:14:15;9.45;;;5.68;;
54412;SDS011;41533;51.390;0.074;2023-04-24T04:16:46;6.53;;;4.35;;
54412;SDS011;41533;51.390;0.074;2023-04-24T04:19:14;5.97;;;3.33;;
54412;SDS011;41533;51.390;0.074;2023-04-24T04:21:41;10.88;;;5.55;;
54412;SDS011;41533;51.390;0.074;2023-04-24T04:24:24;7.10;;;4.80;;
54412;SDS011;41533;51.390;0.074;2023-04-24T04:26:52;6.97;;;4.47;;
54412;SDS011;41533;51.390;0.074;2023-04-24T04:29:24;11.90;;;5.55;;
54412;SDS011;41533;51.390;0.074;2023-04-24T04:31:52;7.03;;;4.30;;
54412;SDS011;41533;51.390;0.074;2023-04-24T04:34:21;8.68;;;4.78;;
54412;SDS011;41533;51.390;0.074;2023-04-24T04:36:50;10.40;;;5.93;;
54412;SDS011;41533;51.390;0.074;2023-04-24T04:39:31;10.18;;;5.90;;
54412;SDS011;41533;51.390;0.074;2023-04-24T04:42:01;6.78;;;4.28;;
54412;SDS011;41533;51.390;0.074;2023-04-24T04:44:36;10.88;;;6.07;;
54412;SDS011;41533;51.390;0.074;2023-04-24T04:47:05;5.97;;;4.50;;
54412;SDS011;41533;51.390;0.074;2023-04-24T04:49:35;4.95;;;3.08;;
54412;SDS011;41533;51.390;0.074;2023-04-24T04:52:06;10.77;;;5.90;;
54412;SDS011;41533;51.390;0.074;2023-04-24T04:54:34;7.18;;;5.15;;
54412;SDS011;41533;51.390;0.074;2023-04-24T04:57:01;5.35;;;3.05;;
54412;SDS011;41533;51.390;0.074;2023-04-24T04:59:30;6.95;;;4.68;;
54412;SDS011;41533;51.390;0.074;2023-04-24T05:04:31;9.20;;;4.70;;
54412;SDS011;41533;51.390;0.074;2023-04-24T05:06:59;12.82;;;5.28;;
54412;SDS011;41533;51.390;0.074;2023-04-24T05:09:29;10.60;;;6.43;;
54412;SDS011;41533;51.390;0.074;2023-04-24T05:12:01;5.75;;;4.22;;
54412;SDS011;41533;51.390;0.074;2023-04-24T05:14:33;10.30;;;5.53;;
54412;SDS011;41533;51.390;0.074;2023-04-24T05:17:00;6.40;;;3.28;;
54412;SDS011;41533;51.390;0.074;2023-04-24T05:19:29;6.47;;;4.40;;
54412;SDS011;41533;51.390;0.074;2023-04-24T05:21:56;3.90;;;3.03;;
54412;SDS011;41533;51.390;0.074;2023-04-24T05:24:24;8.55;;;4.72;;
54412;SDS011;41533;51.390;0.074;2023-04-24T05:27:10;7.50;;;3.58;;
54412;SDS011;41533;51.390;0.074;2023-04-24T05:29:39;4.00;;;2.42;;
54412;SDS011;41533;51.390;0.074;2023-04-24T05:32:08;3.55;;;2.53;;
54412;SDS011;41533;51.390;0.074;2023-04-24T05:34:35;9.05;;;5.60;;
54412;SDS011;41533;51.390;0.074;2023-04-24T05:37:03;6.20;;;3.00;;
54412;SDS011;41533;51.390;0.074;2023-04-24T05:39:35;3.05;;;2.75;;
54412;SDS011;41533;51.390;0.074;2023-04-24T05:42:02;4.50;;;2.92;;
54412;SDS011;41533;51.390;0.074;2023-04-24T05:44:31;4.55;;;3.45;;
54412;SDS011;41533;51.390;0.074;2023-04-24T05:46:59;7.68;;;4.82;;
54412;SDS011;41533;51.390;0.074;2023-04-24T05:49:26;6.50;;;4.18;;
54412;SDS011;41533;51.390;0.074;2023-04-24T05:51:54;4.82;;;3.00;;
54412;SDS011;41533;51.390;0.074;2023-04-24T05:54:22;7.25;;;4.05;;
54412;SDS011;41533;51.390;0.074;2023-04-24T05:56:49;6.50;;;3.85;;
54412;SDS011;41533;51.390;0.074;2023-04-24T05:59:26;5.80;;;3.70;;
54412;SDS011;41533;51.390;0.074;2023-04-24T06:01:53;5.30;;;3.40;;
54412;SDS011;41533;51.390;0.074;2023-04-24T06:04:23;7.25;;;4.60;;
54412;SDS011;41533;51.390;0.074;2023-04-24T06:06:52;6.20;;;5.03;;
54412;SDS011;41533;51.390;0.074;2023-04-24T06:09:23;6.78;;;3.10;;
54412;SDS011;41533;51.390;0.074;2023-04-24T06:11:51;8.77;;;4.32;;
54412;SDS011;41533;51.390;0.074;2023-04-24T06:14:26;6.53;;;3.45;;
54412;SDS011;41533;51.390;0.074;2023-04-24T06:17:16;4.28;;;2.22;;
54412;SDS011;41533;51.390;0.074;2023-04-24T06:19:45;4.22;;;2.40;;
54412;SDS011;41533;51.390;0.074;2023-04-24T06:22:13;5.78;;;2.63;;
54412;SDS011;41533;51.390;0.074;2023-04-24T06:24:40;2.22;;;1.90;;
54412;SDS011;41533;51.390;0.074;2023-04-24T06:27:08;4.70;;;2.38;;
54412;SDS011;41533;51.390;0.074;2023-04-24T06:29:36;2.55;;;2.17;;
54412;SDS011;41533;51.390;0.074;2023-04-24T06:32:03;2.85;;;2.00;;
54412;SDS011;41533;51.390;0.074;2023-04-24T06:34:32;2.92;;;1.60;;
54412;SDS011;41533;51.390;0.074;2023-04-24T06:37:01;3.58;;;2.03;;
54412;SDS011;41533;51.390;0.074;2023-04-24T06:39:29;5.50;;;2.65;;
54412;SDS011;41533;51.390;0.074;2023-04-24T06:41:56;2.40;;;2.08;;
54412;SDS011;41533;51.390;0.074;2023-04-24T06:44:23;3.58;;;1.92;;
54412;SDS011;41533;51.390;0.074;2023-04-24T06:46:50;2.20;;;1.70;;
54412;SDS011;41533;51.390;0.074;2023-04-24T06:49:18;2.58;;;1.80;;
54412;SDS011;41533;51.390;0.074;2023-04-24T06:51:45;3.08;;;1.60;;
54412;SDS011;41533;51.390;0.074;2023-04-24T06:54:12;5.43;;;1.77;;
54412;SDS011;41533;51.390;0.074;2023-04-24T06:56:40;2.67;;;1.83;;
54412;SDS011;41533;51.390;0.074;2023-04-24T06:59:07;1.83;;;1.52;;
54412;SDS011;41533;51.390;0.074;2023-04-24T07:01:34;3.13;;;1.50;;
54412;SDS011;41533;51.390;0.074;2023-04-24T07:04:02;2.92;;;1.70;;
54412;SDS011;41533;51.390;0.074;2023-04-24T07:06:29;3.17;;;1.80;;
54412;SDS011;41533;51.390;0.074;2023-04-24T07:08:57;1.95;;;1.35;;
54412;SDS011;41533;51.390;0.074;2023-04-24T07:11:24;5.57;;;1.27;;
54412;SDS011;41533;51.390;0.074;2023-04-24T07:13:56;4.28;;;1.27;;
54412;SDS011;41533;51.390;0.074;2023-04-24T07:16:23;3.30;;;0.98;;
54412;SDS011;41533;51.390;0.074;2023-04-24T07:18:51;2.03;;;1.38;;
54412;SDS011;41533;51.390;0.074;2023-04-24T07:21:18;2.30;;;1.33;;
54412;SDS011;41533;51.390;0.074;2023-04-24T07:23:45;1.02;;;0.93;;
54412;SDS011;41533;51.390;0.074;2023-04-24T07:26:12;3.22;;;1.08;;
54412;SDS011;41533;51.390;0.074;2023-04-24T07:28:41;2.78;;;1.27;;
54412;SDS011;41533;51.390;0.074;2023-04-24T07:31:08;3.47;;;1.40;;
54412;SDS011;41533;51.390;0.074;2023-04-24T07:33:36;1.70;;;1.00;;
54412;SDS011;41533;51.390;0.074;2023-04-24T07:36:03;2.03;;;1.00;;
54412;SDS011;41533;51.390;0.074;2023-04-24T07:38:31;1.20;;;1.10;;
54412;SDS011;41533;51.390;0.074;2023-04-24T07:40:58;3.05;;;1.40;;
54412;SDS011;41533;51.390;0.074;2023-04-24T07:43:25;3.95;;;1.85;;
54412;SDS011;41533;51.390;0.074;2023-04-24T07:45:52;2.38;;;1.08;;
54412;SDS011;41533;51.390;0.074;2023-04-24T07:48:20;1.42;;;1.08;;
54412;SDS011;41533;51.390;0.074;2023-04-24T07:50:48;1.27;;;1.00;;
54412;SDS011;41533;51.390;0.074;2023-04-24T07:53:16;1.83;;;0.90;;
54412;SDS011;41533;51.390;0.074;2023-04-24T07:55:43;1.70;;;1.00;;
54412;SDS011;41533;51.390;0.074;2023-04-24T07:58:10;4.30;;;1.27;;
54412;SDS011;41533;51.390;0.074;2023-04-24T08:00:38;3.40;;;1.05;;
54412;SDS011;41533;51.390;0.074;2023-04-24T08:03:05;4.75;;;1.70;;
54412;SDS011;41533;51.390;0.074;2023-04-24T08:05:32;1.38;;;0.95;;
54412;SDS011;41533;51.390;0.074;2023-04-24T08:07:59;1.52;;;1.10;;
54412;SDS011;41533;51.390;0.074;2023-04-24T08:10:27;3.33;;;0.95;;
54412;SDS011;41533;51.390;0.074;2023-04-24T08:12:54;4.18;;;1.52;;
54412;SDS011;41533;51.390;0.074;2023-04-24T08:15:22;0.98;;;0.80;;
54412;SDS011;41533;51.390;0.074;2023-04-24T08:17:49;2.30;;;1.30;;
54412;SDS011;41533;51.390;0.074;2023-04-24T08:20:17;1.38;;;0.88;;
54412;SDS011;41533;51.390;0.074;2023-04-24T08:22:44;1.00;;;0.90;;
54412;SDS011;41533;51.390;0.074;2023-04-24T08:25:14;1.40;;;0.77;;
54412;SDS011;41533;51.390;0.074;2023-04-24T08:27:41;2.70;;;1.20;;
54412;SDS011;41533;51.390;0.074;2023-04-24T08:30:08;3.40;;;1.02;;
54412;SDS011;41533;51.390;0.074;2023-04-24T08:32:36;1.83;;;1.15;;
54412;SDS011;41533;51.390;0.074;2023-04-24T08:35:04;2.28;;;1.00;;
54412;SDS011;41533;51.390;0.074;2023-04-24T08:37:31;3.33;;;1.20;;
54412;SDS011;41533;51.390;0.074;2023-04-24T08:39:59;3.10;;;1.17;;
54412;SDS011;41533;51.390;0.074;2023-04-24T08:42:27;5.43;;;1.38;;
54412;SDS011;41533;51.390;0.074;2023-04-24T08:44:55;1.75;;;1.00;;
54412;SDS011;41533;51.390;0.074;2023-04-24T08:47:23;1.85;;;1.00;;
54412;SDS011;41533;51.390;0.074;2023-04-24T08:49:51;3.22;;;0.80;;
54412;SDS011;41533;51.390;0.074;2023-04-24T08:52:19;1.85;;;1.13;;
54412;SDS011;41533;51.390;0.074;2023-04-24T08:54:48;3.95;;;1.88;;
54412;SDS011;41533;51.390;0.074;2023-04-24T08:57:17;3.30;;;1.10;;
54412;SDS011;41533;51.390;0.074;2023-04-24T08:59:45;2.55;;;0.95;;
54412;SDS011;41533;51.390;0.074;2023-04-24T09:02:12;2.95;;;1.42;;
54412;SDS011;41533;51.390;0.074;2023-04-24T09:04:40;3.15;;;1.10;;
54412;SDS011;41533;51.390;0.074;2023-04-24T09:07:07;2.22;;;1.27;;
54412;SDS011;41533;51.390;0.074;2023-04-24T09:09:35;2.85;;;1.33;;
54412;SDS011;41533;51.390;0.074;2023-04-24T09:12:02;1.38;;;0.82;;
54412;SDS011;41533;51.390;0.074;2023-04-24T09:14:31;4.20;;;1.45;;
54412;SDS011;41533;51.390;0.074;2023-04-24T09:16:58;3.90;;;1.45;;
54412;SDS011;41533;51.390;0.074;2023-04-24T09:19:26;2.75;;;1.50;;
54412;SDS011;41533;51.390;0.074;2023-04-24T09:21:53;5.28;;;1.88;;
54412;SDS011;41533;51.390;0.074;2023-04-24T09:24:21;4.45;;;2.00;;
54412;SDS011;41533;51.390;0.074;2023-04-24T09:26:56;2.08;;;1.00;;
54412;SDS011;41533;51.390;0.074;2023-04-24T09:29:24;5.28;;;1.27;;
54412;SDS011;41533;51.390;0.074;2023-04-24T09:31:52;5.10;;;1.77;;
54412;SDS011;41533;51.390;0.074;2023-04-24T09:34:22;4.88;;;1.85;;
54412;SDS011;41533;51.390;0.074;2023-04-24T09:36:50;3.60;;;1.73;;
54412;SDS011;41533;51.390;0.074;2023-04-24T09:39:18;1.63;;;1.17;;
54412;SDS011;41533;51.390;0.074;2023-04-24T09:44:23;4.65;;;2.25;;
54412;SDS011;41533;51.390;0.074;2023-04-24T09:46:51;1.85;;;1.17;;
54412;SDS011;41533;51.390;0.074;2023-04-24T09:49:23;2.95;;;1.63;;
54412;SDS011;41533;51.390;0.074;2023-04-24T09:51:51;4.18;;;1.52;;
54412;SDS011;41533;51.390;0.074;2023-04-24T09:54:19;3.67;;;1.63;;
54412;SDS011;41533;51.390;0.074;2023-04-24T09:56:48;4.10;;;1.90;;
54412;SDS011;41533;51.390;0.074;2023-04-24T09:59:16;5.68;;;2.45;;
54412;SDS011;41533;51.390;0.074;2023-04-24T10:01:44;2.50;;;1.23;;
54412;SDS011;41533;51.390;0.074;2023-04-24T10:04:15;5.78;;;1.77;;
54412;SDS011;41533;51.390;0.074;2023-04-24T10:06:44;3.08;;;0.98;;
54412;SDS011;41533;51.390;0.074;2023-04-24T10:09:11;4.00;;;2.53;;
54412;SDS011;41533;51.390;0.074;2023-04-24T10:11:41;2.72;;;1.50;;
54412;SDS011;41533;51.390;0.074;2023-04-24T10:14:09;3.78;;;1.98;;
54412;SDS011;41533;51.390;0.074;2023-04-24T10:16:38;3.47;;;1.83;;
54412;SDS011;41533;51.390;0.074;2023-04-24T10:19:06;1.98;;;1.52;;
54412;SDS011;41533;51.390;0.074;2023-04-24T10:21:34;6.75;;;1.92;;
54412;SDS011;41533;51.390;0.074;2023-04-24T10:24:01;4.18;;;1.60;;
54412;SDS011;41533;51.390;0.074;2023-04-24T10:26:31;3.92;;;1.75;;
54412;SDS011;41533;51.390;0.074;2023-04-24T10:28:59;4.30;;;1.73;;
54412;SDS011;41533;51.390;0.074;2023-04-24T10:31:29;5.47;;;2.42;;
54412;SDS011;41533;51.390;0.074;2023-04-24T10:33:57;4.20;;;1.67;;
54412;SDS011;41533;51.390;0.074;2023-04-24T10:36:25;2.85;;;1.55;;
54412;SDS011;41533;51.390;0.074;2023-04-24T10:38:54;3.65;;;1.15;;
54412;SDS011;41533;51.390;0.074;2023-04-24T10:41:22;7.20;;;1.80;;
54412;SDS011;41533;51.390;0.074;2023-04-24T10:44:08;3.83;;;1.50;;
54412;SDS011;41533;51.390;0.074;2023-04-24T10:46:36;3.38;;;2.33;;
54412;SDS011;41533;51.390;0.074;2023-04-24T10:49:04;3.28;;;2.10;;
54412;SDS011;41533;51.390;0.074;2023-04-24T10:51:44;3.83;;;1.60;;
54412;SDS011;41533;51.390;0.074;2023-04-24T11:00:09;1.35;;;0.90;;
54412;SDS011;41533;51.390;0.074;2023-04-24T11:02:37;6.15;;;1.55;;
54412;SDS011;41533;51.390;0.074;2023-04-24T11:05:05;5.72;;;1.88;;
54412;SDS011;41533;51.390;0.074;2023-04-24T11:10:25;2.17;;;1.23;;
54412;SDS011;41533;51.390;0.074;2023-04-24T11:12:53;3.85;;;2.28;;
54412;SDS011;41533;51.390;0.074;2023-04-24T11:15:20;4.20;;;1.98;;
54412;SDS011;41533;51.390;0.074;2023-04-24T11:17:48;4.38;;;1.65;;
54412;SDS011;41533;51.390;0.074;2023-04-24T11:20:16;5.85;;;1.55;;
54412;SDS011;41533;51.390;0.074;2023-04-24T11:22:53;4.00;;;1.40;;
54412;SDS011;41533;51.390;0.074;2023-04-24T11:25:24;4.45;;;1.63;;
54412;SDS011;41533;51.390;0.074;2023-04-24T11:28:02;3.08;;;1.40;;
54412;SDS011;41533;51.390;0.074;2023-04-24T11:30:30;5.68;;;2.95;;
54412;SDS011;41533;51.390;0.074;2023-04-24T11:33:01;4.13;;;1.77;;
54412;SDS011;41533;51.390;0.074;2023-04-24T11:35:29;3.95;;;2.75;;
54412;SDS011;41533;51.390;0.074;2023-04-24T11:37:57;3.78;;;2.65;;
54412;SDS011;41533;51.390;0.074;2023-04-24T11:40:28;7.72;;;3.30;;
54412;SDS011;41533;51.390;0.074;2023-04-24T11:42:56;3.70;;;2.83;;
54412;SDS011;41533;51.390;0.074;2023-04-24T11:45:30;9.00;;;3.92;;
54412;SDS011;41533;51.390;0.074;2023-04-24T11:47:58;7.97;;;3.45;;
54412;SDS011;41533;51.390;0.074;2023-04-24T11:50:26;6.10;;;3.65;;
54412;SDS011;41533;51.390;0.074;2023-04-24T11:52:54;7.78;;;5.60;;
54412;SDS011;41533;51.390;0.074;2023-04-24T11:55:23;11.40;;;6.10;;
54412;SDS011;41533;51.390;0.074;2023-04-24T11:57:53;9.98;;;5.90;;
54412;SDS011;41533;51.390;0.074;2023-04-24T12:00:24;12.75;;;6.55;;
54412;SDS011;41533;51.390;0.074;2023-04-24T12:03:02;11.55;;;6.07;;
54412;SDS011;41533;51.390;0.074;2023-04-24T12:05:30;11.55;;;7.40;;
54412;SDS011;41533;51.390;0.074;2023-04-24T12:07:58;15.15;;;7.72;;
54412;SDS011;41533;51.390;0.074;2023-04-24T12:10:26;9.77;;;6.07;;
54412;SDS011;41533;51.390;0.074;2023-04-24T12:12:55;50.08;;;23.55;;
54412;SDS011;41533;51.390;0.074;2023-04-24T12:15:23;14.63;;;8.15;;
54412;SDS011;41533;51.390;0.074;2023-04-24T12:17:53;18.17;;;8.52;;
54412;SDS011;41533;51.390;0.074;2023-04-24T12:20:24;12.30;;;8.18;;
54412;SDS011;41533;51.390;0.074;2023-04-24T12:22:55;14.02;;;7.72;;
54412;SDS011;41533;51.390;0.074;2023-04-24T12:25:24;18.33;;;10.27;;
54412;SDS011;41533;51.390;0.074;2023-04-24T12:30:31;13.75;;;8.00;;
54412;SDS011;41533;51.390;0.074;2023-04-24T12:32:59;11.82;;;7.65;;
54412;SDS011;41533;51.390;0.074;2023-04-24T12:35:27;11.63;;;7.05;;
54412;SDS011;41533;51.390;0.074;2023-04-24T12:37:55;11.52;;;6.78;;
54412;SDS011;41533;51.390;0.074;2023-04-24T12:40:24;11.55;;;7.03;;
54412;SDS011;41533;51.390;0.074;2023-04-24T12:42:52;14.35;;;7.25;;
54412;SDS011;41533;51.390;0.074;2023-04-24T12:45:20;13.65;;;8.23;;
54412;SDS011;41533;51.390;0.074;2023-04-24T12:47:50;12.15;;;6.60;;
54412;SDS011;41533;51.390;0.074;2023-04-24T12:50:17;12.85;;;6.47;;
54412;SDS011;41533;51.390;0.074;2023-04-24T12:52:47;10.07;;;6.53;;
54412;SDS011;41533;51.390;0.074;2023-04-24T12:55:14;13.73;;;6.40;;
54412;SDS011;41533;51.390;0.074;2023-04-24T12:57:41;10.13;;;5.57;;
54412;SDS011;41533;51.390;0.074;2023-04-24T13:00:09;10.32;;;5.57;;
54412;SDS011;41533;51.390;0.074;2023-04-24T13:02:36;10.90;;;5.25;;
54412;SDS011;41533;51.390;0.074;2023-04-24T13:05:04;10.70;;;4.85;;
54412;SDS011;41533;51.390;0.074;2023-04-24T13:07:31;7.43;;;4.50;;
54412;SDS011;41533;51.390;0.074;2023-04-24T13:09:58;8.35;;;5.43;;
54412;SDS011;41533;51.390;0.074;2023-04-24T13:12:26;9.27;;;5.18;;
54412;SDS011;41533;51.390;0.074;2023-04-24T13:14:53;13.88;;;7.07;;
54412;SDS011;41533;51.390;0.074;2023-04-24T13:17:21;16.88;;;7.95;;
54412;SDS011;41533;51.390;0.074;2023-04-24T13:19:48;14.90;;;6.35;;
54412;SDS011;41533;51.390;0.074;2023-04-24T13:22:16;14.90;;;6.97;;
54412;SDS011;41533;51.390;0.074;2023-04-24T13:24:45;13.18;;;7.00;;
54412;SDS011;41533;51.390;0.074;2023-04-24T13:27:12;13.88;;;5.53;;
54412;SDS011;41533;51.390;0.074;2023-04-24T13:29:40;15.45;;;6.65;;
54412;SDS011;41533;51.390;0.074;2023-04-24T13:32:07;10.32;;;6.18;;
54412;SDS011;41533;51.390;0.074;2023-04-24T13:34:35;9.02;;;5.45;;
54412;SDS011;41533;51.390;0.074;2023-04-24T13:37:03;9.88;;;5.70;;
54412;SDS011;41533;51.390;0.074;2023-04-24T13:39:31;6.47;;;4.47;;
54412;SDS011;41533;51.390;0.074;2023-04-24T13:41:58;8.40;;;5.03;;
54412;SDS011;41533;51.390;0.074;2023-04-24T13:44:26;8.68;;;4.20;;
54412;SDS011;41533;51.390;0.074;2023-04-24T13:46:54;7.68;;;4.03;;
54412;SDS011;41533;51.390;0.074;2023-04-24T13:49:23;8.07;;;3.95;;
54412;SDS011;41533;51.390;0.074;2023-04-24T13:51:54;6.13;;;3.42;;
54412;SDS011;41533;51.390;0.074;2023-04-24T13:54:22;5.00;;;2.88;;
54412;SDS011;41533;51.390;0.074;2023-04-24T13:56:52;6.97;;;3.05;;
54412;SDS011;41533;51.390;0.074;2023-04-24T13:59:20;6.72;;;3.30;;
54412;SDS011;41533;51.390;0.074;2023-04-24T14:01:48;10.63;;;2.92;;
54412;SDS011;41533;51.390;0.074;2023-04-24T14:04:15;4.20;;;2.78;;
54412;SDS011;41533;51.390;0.074;2023-04-24T14:06:43;6.10;;;2.67;;
54412;SDS011;41533;51.390;0.074;2023-04-24T14:09:10;4.05;;;2.30;;
54412;SDS011;41533;51.390;0.074;2023-04-24T14:11:37;6.88;;;2.78;;
54412;SDS011;41533;51.390;0.074;2023-04-24T14:14:04;4.80;;;2.47;;
54412;SDS011;41533;51.390;0.074;2023-04-24T14:16:32;6.65;;;2.35;;
54412;SDS011;41533;51.390;0.074;2023-04-24T14:18:59;3.25;;;1.90;;
54412;SDS011;41533;51.390;0.074;2023-04-24T14:21:27;7.13;;;2.13;;
54412;SDS011;41533;51.390;0.074;2023-04-24T14:23:54;3.47;;;2.40;;
54412;SDS011;41533;51.390;0.074;2023-04-24T14:26:21;3.00;;;1.90;;
54412;SDS011;41533;51.390;0.074;2023-04-24T14:28:49;2.72;;;2.00;;
54412;SDS011;41533;51.390;0.074;2023-04-24T14:31:17;4.65;;;2.40;;
54412;SDS011;41533;51.390;0.074;2023-04-24T14:33:44;2.70;;;2.00;;
54412;SDS011;41533;51.390;0.074;2023-04-24T14:36:12;3.13;;;1.98;;
54412;SDS011;41533;51.390;0.074;2023-04-24T14:38:39;4.70;;;2.22;;
54412;SDS011;41533;51.390;0.074;2023-04-24T14:41:07;4.95;;;2.08;;
54412;SDS011;41533;51.390;0.074;2023-04-24T14:43:39;4.85;;;1.95;;
54412;SDS011;41533;51.390;0.074;2023-04-24T14:46:07;3.25;;;1.92;;
54412;SDS011;41533;51.390;0.074;2023-04-24T14:48:34;2.50;;;1.40;;
54412;SDS011;41533;51.390;0.074;2023-04-24T14:51:02;1.80;;;1.45;;
54412;SDS011;41533;51.390;0.074;2023-04-24T14:53:29;2.20;;;1.38;;
54412;SDS011;41533;51.390;0.074;2023-04-24T14:55:56;5.32;;;1.27;;
54412;SDS011;41533;51.390;0.074;2023-04-24T14:58:24;4.53;;;1.80;;
54412;SDS011;41533;51.390;0.074;2023-04-24T15:00:51;1.58;;;1.10;;
54412;SDS011;41533;51.390;0.074;2023-04-24T15:03:21;2.72;;;1.75;;
54412;SDS011;41533;51.390;0.074;2023-04-24T15:05:49;3.35;;;1.50;;
54412;SDS011;41533;51.390;0.074;2023-04-24T15:08:16;3.22;;;1.52;;
54412;SDS011;41533;51.390;0.074;2023-04-24T15:10:43;4.43;;;1.60;;